createdAt,value
2017-10-22T00:05:53.333Z,0
2017-10-22T00:16:07.862Z,0
2017-10-22T00:26:23.493Z,0
2017-10-22T00:36:38.510Z,0
2017-10-22T00:46:53.609Z,0
2017-10-22T00:57:08.449Z,0
2017-10-22T01:07:24.184Z,0
2017-10-22T01:17:37.777Z,0
2017-10-22T01:27:52.765Z,0
2017-10-22T01:38:06.602Z,0
2017-10-22T01:48:20.778Z,0
2017-10-22T01:58:35.891Z,0
2017-10-22T02:08:51.470Z,0
2017-10-22T02:19:06.400Z,0
2017-10-22T02:29:20.849Z,0
2017-10-22T02:39:35.694Z,0
2017-10-22T02:49:51.212Z,0
2017-10-22T03:00:05.609Z,0
2017-10-22T03:10:20.320Z,0
2017-10-22T03:20:34.853Z,0
2017-10-22T03:30:49.701Z,0
2017-10-22T03:41:03.710Z,0
2017-10-22T03:51:19.287Z,0
2017-10-22T04:01:34.797Z,0
2017-10-22T04:11:49.073Z,0
2017-10-22T04:22:03.982Z,0
2017-10-22T04:32:19.628Z,0
2017-10-22T04:42:34.182Z,0
2017-10-22T04:52:49.252Z,0
2017-10-22T05:03:04.149Z,0
2017-10-22T05:13:19.179Z,0
2017-10-22T05:23:34.014Z,0
2017-10-22T05:33:49.377Z,0
2017-10-22T05:44:03.849Z,8
2017-10-22T05:54:18.227Z,28
2017-10-22T06:04:31.637Z,88
2017-10-22T06:14:46.545Z,172
2017-10-22T06:25:00.616Z,368
2017-10-22T06:35:15.068Z,752
2017-10-22T06:45:29.587Z,884
2017-10-22T06:55:44.450Z,888
2017-10-22T07:05:59.043Z,896
2017-10-22T07:16:13.016Z,1320
2017-10-22T07:26:27.238Z,2140
2017-10-22T07:36:42.859Z,2172
2017-10-22T07:46:56.752Z,2348
2017-10-22T07:57:10.938Z,2400
2017-10-22T08:07:26.304Z,4468
2017-10-22T08:17:41.392Z,3004
2017-10-22T08:27:56.724Z,2920
2017-10-22T08:38:11.875Z,4700
2017-10-22T08:48:26.897Z,6704
2017-10-22T08:58:41.394Z,6252
2017-10-22T09:08:55.266Z,7444
2017-10-22T09:19:09.414Z,7312
2017-10-22T09:29:24.710Z,9468
2017-10-22T09:39:40.489Z,6220
2017-10-22T09:49:55.080Z,5588
2017-10-22T10:00:09.196Z,4328
2017-10-22T10:10:22.715Z,6600
2017-10-22T10:20:37.429Z,5244
2017-10-22T10:30:52.388Z,5664
2017-10-22T10:41:06.905Z,4768
2017-10-22T10:51:22.094Z,7156
2017-10-22T11:01:37.884Z,9132
2017-10-22T11:11:52.441Z,8940
2017-10-22T11:22:06.869Z,5604
2017-10-22T11:32:22.374Z,9580
2017-10-22T11:42:37.484Z,6912
2017-10-22T11:52:53.284Z,9704
2017-10-22T12:03:06.956Z,5900
2017-10-22T12:13:22.709Z,17440
2017-10-22T12:23:38.008Z,21984
2017-10-22T12:33:53.744Z,45824
2017-10-22T12:44:08.219Z,20064
2017-10-22T12:54:22.399Z,15680
2017-10-22T13:04:36.891Z,11680
2017-10-22T13:14:52.244Z,16372
2017-10-22T13:25:07.430Z,12172
2017-10-22T13:35:23.400Z,14252
2017-10-22T13:45:37.913Z,13952
2017-10-22T13:55:51.450Z,14824
2017-10-22T14:06:06.409Z,13504
2017-10-22T14:16:22.187Z,12868
2017-10-22T14:26:35.687Z,10948
2017-10-22T14:36:50.951Z,8896
2017-10-22T14:47:05.566Z,9636
2017-10-22T14:57:20.464Z,10856
2017-10-22T15:07:35.400Z,8580
2017-10-22T15:17:50.279Z,7796
2017-10-22T15:28:05.149Z,6248
2017-10-22T15:38:19.933Z,5720
2017-10-22T15:48:34.692Z,2312
2017-10-22T15:58:49.665Z,768
2017-10-22T16:09:04.062Z,620
2017-10-22T16:19:17.903Z,312
2017-10-22T16:29:32.764Z,112
2017-10-22T16:39:47.894Z,32
2017-10-22T16:50:03.195Z,4
2017-10-22T17:00:18.120Z,0
2017-10-22T17:10:32.020Z,0
2017-10-22T17:20:47.105Z,0
2017-10-22T17:31:01.375Z,0
2017-10-22T17:41:16.014Z,0
2017-10-22T17:51:30.451Z,0
2017-10-22T18:01:44.583Z,0
2017-10-22T18:11:59.345Z,0
2017-10-22T18:22:14.478Z,0
2017-10-22T18:32:28.630Z,0
2017-10-22T18:42:43.476Z,0
2017-10-22T18:52:57.097Z,0
2017-10-22T19:03:11.007Z,0
2017-10-22T19:13:25.514Z,0
2017-10-22T19:23:40.356Z,0
2017-10-22T19:33:55.140Z,0
2017-10-22T19:44:10.093Z,0
2017-10-22T19:54:25.084Z,0
2017-10-22T20:04:40.080Z,0
2017-10-22T20:14:56.087Z,0
2017-10-22T20:25:10.003Z,0
2017-10-22T20:35:23.866Z,0
2017-10-22T20:45:38.337Z,0
2017-10-22T20:55:53.366Z,0
2017-10-22T21:06:07.393Z,0
2017-10-22T21:16:21.948Z,0
2017-10-22T21:26:35.945Z,0
2017-10-22T21:36:50.901Z,0
2017-10-22T21:47:05.489Z,0
2017-10-22T21:57:22.553Z,0
2017-10-22T22:07:35.287Z,0
2017-10-22T22:17:49.505Z,0
2017-10-22T22:28:04.815Z,0
2017-10-22T22:38:19.227Z,0
2017-10-22T22:48:34.564Z,0
2017-10-22T22:58:49.309Z,0
2017-10-22T23:09:04.494Z,0
2017-10-22T23:19:19.892Z,0
2017-10-22T23:29:35.233Z,0
2017-10-22T23:39:51.122Z,0
2017-10-22T23:50:04.808Z,0
